createdAt,value
2018-09-14T00:01:16.332Z,15.60
2018-09-14T00:03:45.437Z,15.50
2018-09-14T00:06:14.512Z,15.30
2018-09-14T00:08:43.623Z,15.40
2018-09-14T00:11:12.719Z,15.40
2018-09-14T00:13:41.856Z,15.50
2018-09-14T00:16:10.956Z,15.50
2018-09-14T00:18:40.083Z,15.50
2018-09-14T00:21:09.183Z,15.40
2018-09-14T00:23:38.257Z,15.40
2018-09-14T00:26:07.413Z,15.40
2018-09-14T00:28:36.537Z,15.40
2018-09-14T00:31:05.680Z,15.40
2018-09-14T00:33:34.763Z,15.50
2018-09-14T00:36:03.913Z,15.50
2018-09-14T00:38:33.038Z,15.60
2018-09-14T00:41:02.086Z,15.50
2018-09-14T00:43:31.164Z,15.50
2018-09-14T00:46:00.236Z,15.50
2018-09-14T00:48:29.285Z,15.40
2018-09-14T00:50:58.407Z,15.40
2018-09-14T00:53:27.532Z,15.30
2018-09-14T00:55:56.611Z,15.20
2018-09-14T00:58:25.704Z,15.10
2018-09-14T01:00:54.820Z,15.20
2018-09-14T01:03:23.906Z,15.20
2018-09-14T01:05:53.006Z,15.10
2018-09-14T01:08:22.111Z,15.10
2018-09-14T01:10:51.207Z,15.10
2018-09-14T01:13:20.323Z,15.20
2018-09-14T01:15:49.410Z,15.20
2018-09-14T01:18:18.547Z,15.20
2018-09-14T01:20:47.659Z,15.30
2018-09-14T01:23:16.754Z,15.20
2018-09-14T01:25:45.886Z,15.20
2018-09-14T01:28:14.922Z,15.10
2018-09-14T01:30:44.060Z,15.10
2018-09-14T01:33:13.122Z,15.00
2018-09-14T01:35:47.354Z,15.00
2018-09-14T01:38:16.494Z,15.00
2018-09-14T01:40:45.579Z,15.00
2018-09-14T01:43:14.708Z,15.00
2018-09-14T01:45:43.794Z,14.90
2018-09-14T01:48:12.926Z,14.80
2018-09-14T01:50:42.176Z,14.80
2018-09-14T01:53:11.423Z,14.80
2018-09-14T01:55:40.503Z,14.80
2018-09-14T01:58:09.600Z,14.90
2018-09-14T02:00:38.693Z,14.80
2018-09-14T02:03:07.769Z,14.70
2018-09-14T02:05:36.920Z,14.70
2018-09-14T02:08:06.053Z,14.70
2018-09-14T02:10:35.108Z,14.80
2018-09-14T02:13:04.168Z,14.70
2018-09-14T02:15:33.391Z,14.60
2018-09-14T02:18:02.523Z,14.70
2018-09-14T02:20:31.602Z,14.70
2018-09-14T02:23:00.714Z,14.60
2018-09-14T02:25:30.770Z,14.60
2018-09-14T02:27:59.850Z,14.60
2018-09-14T02:30:28.929Z,14.60
2018-09-14T02:32:58.023Z,14.60
2018-09-14T02:35:27.076Z,14.60
2018-09-14T02:37:56.126Z,14.60
2018-09-14T02:40:25.214Z,14.60
2018-09-14T02:42:54.368Z,14.60
2018-09-14T02:45:23.436Z,14.60
2018-09-14T02:47:52.547Z,14.50
2018-09-14T02:50:21.683Z,14.50
2018-09-14T02:52:50.801Z,14.50
2018-09-14T02:55:19.932Z,14.40
2018-09-14T02:57:49.026Z,14.40
2018-09-14T03:00:18.130Z,14.40
2018-09-14T03:02:47.172Z,14.40
2018-09-14T03:05:16.272Z,14.40
2018-09-14T03:07:45.363Z,14.40
2018-09-14T03:10:14.559Z,14.30
2018-09-14T03:12:43.634Z,14.30
2018-09-14T03:15:12.749Z,14.30
2018-09-14T03:17:41.798Z,14.20
2018-09-14T03:20:10.872Z,14.20
2018-09-14T03:22:39.942Z,14.10
2018-09-14T03:25:09.058Z,14.10
2018-09-14T03:27:38.111Z,14.20
2018-09-14T03:30:07.269Z,14.20
2018-09-14T03:32:36.370Z,14.20
2018-09-14T03:35:05.512Z,14.20
2018-09-14T03:37:34.565Z,14.20
2018-09-14T03:40:03.691Z,14.20
2018-09-14T03:42:32.798Z,14.30
2018-09-14T03:45:01.928Z,14.20
2018-09-14T03:47:30.984Z,14.20
2018-09-14T03:50:00.099Z,14.20
2018-09-14T03:52:29.184Z,14.20
2018-09-14T03:54:58.226Z,14.10
2018-09-14T03:57:27.351Z,14.10
2018-09-14T03:59:56.391Z,14.00
2018-09-14T04:02:25.485Z,13.90
2018-09-14T04:04:54.534Z,13.90
2018-09-14T04:07:23.622Z,13.80
2018-09-14T04:09:52.683Z,13.80
2018-09-14T04:12:22.094Z,13.90
2018-09-14T04:14:51.253Z,13.80
2018-09-14T04:17:20.348Z,13.80
2018-09-14T04:19:49.470Z,13.80
2018-09-14T04:22:18.577Z,13.90
2018-09-14T04:24:47.659Z,13.90
2018-09-14T04:27:16.767Z,13.90
2018-09-14T04:29:45.983Z,13.90
2018-09-14T04:32:15.182Z,13.90
2018-09-14T04:34:44.280Z,13.90
2018-09-14T04:37:13.395Z,13.90
2018-09-14T04:39:42.530Z,13.90
2018-09-14T04:42:11.592Z,13.90
2018-09-14T04:44:40.719Z,13.90
2018-09-14T04:47:09.781Z,13.90
2018-09-14T04:49:38.888Z,13.80
2018-09-14T04:52:07.964Z,13.90
2018-09-14T04:54:37.129Z,13.90
2018-09-14T04:57:06.404Z,13.80
2018-09-14T04:59:35.690Z,13.80
2018-09-14T05:02:04.789Z,13.90
2018-09-14T05:04:33.866Z,13.90
2018-09-14T05:07:03.022Z,13.90
2018-09-14T05:09:32.090Z,13.80
2018-09-14T05:12:01.176Z,13.80
2018-09-14T05:14:30.338Z,13.70
2018-09-14T05:16:59.476Z,13.80
2018-09-14T05:19:28.595Z,13.80
2018-09-14T05:21:57.690Z,13.80
2018-09-14T05:24:26.855Z,13.80
2018-09-14T05:26:55.964Z,13.80
2018-09-14T05:29:25.057Z,13.80
2018-09-14T05:31:54.150Z,13.80
2018-09-14T05:34:23.452Z,13.80
2018-09-14T05:36:52.506Z,13.80
2018-09-14T05:39:21.723Z,13.80
2018-09-14T05:41:50.793Z,13.90
2018-09-14T05:44:23.526Z,13.90
2018-09-14T05:46:52.625Z,13.80
2018-09-14T05:49:21.753Z,13.80
2018-09-14T05:51:50.980Z,13.80
2018-09-14T05:54:20.113Z,13.80
2018-09-14T05:56:49.217Z,13.80
2018-09-14T05:59:18.373Z,13.90
2018-09-14T06:01:48.500Z,13.90
2018-09-14T06:04:17.623Z,13.90
2018-09-14T06:06:46.718Z,13.90
2018-09-14T06:09:15.815Z,13.90
2018-09-14T06:11:44.899Z,14.00
2018-09-14T06:14:14.009Z,13.90
2018-09-14T06:16:43.172Z,14.00
2018-09-14T06:19:12.326Z,14.00
2018-09-14T06:21:41.415Z,14.10
2018-09-14T06:24:10.615Z,14.10
2018-09-14T06:26:39.835Z,14.10
2018-09-14T06:29:08.978Z,14.10
2018-09-14T06:31:38.046Z,14.20
2018-09-14T06:34:07.221Z,14.30
2018-09-14T06:36:36.328Z,14.40
2018-09-14T06:39:08.375Z,14.40
2018-09-14T06:41:37.601Z,14.40
2018-09-14T06:44:07.030Z,14.50
2018-09-14T06:46:36.319Z,14.50
2018-09-14T06:49:06.403Z,14.60
2018-09-14T06:51:37.078Z,14.60
2018-09-14T06:54:06.305Z,14.60
2018-09-14T06:56:35.408Z,14.50
2018-09-14T06:59:04.696Z,14.50
2018-09-14T07:01:33.863Z,14.50
2018-09-14T07:04:02.953Z,14.40
2018-09-14T07:06:32.472Z,14.40
2018-09-14T07:09:01.593Z,14.50
2018-09-14T07:11:30.746Z,14.60
2018-09-14T07:13:59.823Z,14.70
2018-09-14T07:16:28.935Z,14.80
2018-09-14T07:18:58.061Z,15.00
2018-09-14T07:21:27.284Z,15.00
2018-09-14T07:23:56.420Z,15.10
2018-09-14T07:26:25.506Z,15.10
2018-09-14T07:28:54.693Z,15.10
2018-09-14T07:31:23.713Z,15.10
2018-09-14T07:33:52.806Z,15.20
2018-09-14T07:36:21.905Z,15.20
2018-09-14T07:38:50.998Z,15.30
2018-09-14T07:41:20.075Z,15.30
2018-09-14T07:43:49.169Z,15.50
2018-09-14T07:46:18.268Z,15.60
2018-09-14T07:48:47.529Z,15.70
2018-09-14T07:51:16.655Z,15.80
2018-09-14T07:53:45.740Z,15.80
2018-09-14T07:56:14.835Z,15.90
2018-09-14T07:58:43.947Z,16.10
2018-09-14T08:01:13.165Z,16.10
2018-09-14T08:03:42.243Z,16.30
2018-09-14T08:06:11.395Z,16.40
2018-09-14T08:08:40.458Z,16.50
2018-09-14T08:11:09.559Z,16.70
2018-09-14T08:13:38.724Z,16.90
2018-09-14T08:16:07.886Z,16.90
2018-09-14T08:18:37.089Z,16.90
2018-09-14T08:21:07.403Z,17.00
2018-09-14T08:23:36.491Z,17.10
2018-09-14T08:26:05.584Z,17.30
2018-09-14T08:28:34.667Z,17.50
2018-09-14T08:31:03.735Z,17.70
2018-09-14T08:33:32.924Z,17.90
2018-09-14T08:36:02.043Z,18.10
2018-09-14T08:38:31.200Z,18.10
2018-09-14T08:41:00.336Z,18.20
2018-09-14T08:43:29.482Z,18.30
2018-09-14T08:45:58.561Z,18.20
2018-09-14T08:48:27.686Z,18.50
2018-09-14T08:50:56.796Z,18.70
2018-09-14T08:53:25.917Z,18.80
2018-09-14T08:55:55.002Z,19.10
2018-09-14T08:58:24.163Z,19.50
2018-09-14T09:00:53.397Z,19.80
2018-09-14T09:03:22.391Z,20.00
2018-09-14T09:05:51.517Z,20.20
2018-09-14T09:08:20.671Z,20.70
2018-09-14T09:10:49.840Z,21.10
2018-09-14T09:13:18.925Z,21.70
2018-09-14T09:15:48.032Z,22.20
2018-09-14T09:18:17.194Z,22.70
2018-09-14T09:20:46.315Z,23.00
2018-09-14T09:23:15.492Z,23.40
2018-09-14T09:25:44.690Z,23.50
2018-09-14T09:28:13.892Z,23.40
2018-09-14T09:30:43.010Z,23.70
2018-09-14T09:33:12.131Z,23.80
2018-09-14T09:35:41.225Z,24.20
2018-09-14T09:38:10.378Z,25.30
2018-09-14T09:40:39.594Z,26.80
2018-09-14T09:43:08.789Z,28.10
2018-09-14T09:45:37.909Z,29.40
2018-09-14T09:48:07.070Z,30.00
2018-09-14T09:50:36.197Z,31.20
2018-09-14T09:53:06.085Z,32.30
2018-09-14T09:55:35.445Z,33.10
2018-09-14T09:58:04.589Z,32.80
2018-09-14T10:00:38.948Z,33.10
2018-09-14T10:03:13.225Z,32.90
2018-09-14T10:05:47.642Z,32.80
2018-09-14T10:08:16.840Z,33.70
2018-09-14T10:10:45.976Z,34.70
2018-09-14T10:13:15.119Z,34.70
2018-09-14T10:15:44.359Z,35.30
2018-09-14T10:18:13.475Z,35.50
2018-09-14T10:20:42.637Z,34.80
2018-09-14T10:23:11.865Z,33.20
2018-09-14T10:25:40.979Z,30.70
2018-09-14T10:28:10.066Z,29.30
2018-09-14T10:30:39.250Z,29.30
2018-09-14T10:33:08.362Z,28.50
2018-09-14T10:35:37.557Z,27.50
2018-09-14T10:38:07.016Z,26.80
2018-09-14T10:40:36.634Z,26.60
2018-09-14T10:43:06.375Z,28.00
2018-09-14T10:45:35.498Z,29.60
2018-09-14T10:48:04.758Z,31.80
2018-09-14T10:50:33.927Z,33.60
2018-09-14T10:53:03.460Z,34.50
2018-09-14T10:55:32.612Z,34.30
2018-09-14T10:58:08.203Z,33.60
2018-09-14T11:00:37.406Z,33.80
2018-09-14T11:03:06.511Z,33.50
2018-09-14T11:05:35.679Z,33.90
2018-09-14T11:08:04.814Z,34.70
2018-09-14T11:10:33.899Z,35.40
2018-09-14T11:13:03.119Z,35.70
2018-09-14T11:15:32.428Z,35.10
2018-09-14T11:18:01.540Z,33.60
2018-09-14T11:20:30.855Z,32.10
2018-09-14T11:22:59.946Z,30.80
2018-09-14T11:25:29.144Z,29.80
2018-09-14T11:27:58.252Z,28.80
2018-09-14T11:30:27.313Z,27.90
2018-09-14T11:32:56.407Z,27.30
2018-09-14T11:35:25.516Z,26.50
2018-09-14T11:37:54.755Z,25.70
2018-09-14T11:40:23.799Z,25.20
2018-09-14T11:42:52.887Z,24.90
2018-09-14T11:45:22.048Z,24.60
2018-09-14T11:47:51.153Z,25.80
2018-09-14T11:50:20.251Z,27.20
2018-09-14T11:52:49.368Z,29.10
2018-09-14T11:55:18.509Z,28.60
2018-09-14T11:57:47.646Z,27.30
2018-09-14T12:00:16.850Z,26.40
2018-09-14T12:02:45.959Z,25.50
2018-09-14T12:05:15.081Z,24.60
2018-09-14T12:07:44.196Z,24.50
2018-09-14T12:10:13.311Z,25.60
2018-09-14T12:12:42.441Z,26.40
2018-09-14T12:15:11.589Z,26.10
2018-09-14T12:17:40.800Z,25.70
2018-09-14T12:20:10.061Z,25.40
2018-09-14T12:22:39.213Z,24.80
2018-09-14T12:25:08.326Z,24.10
2018-09-14T12:27:37.416Z,23.70
2018-09-14T12:30:06.629Z,23.50
2018-09-14T12:32:35.796Z,23.40
2018-09-14T12:35:04.937Z,23.30
2018-09-14T12:37:34.119Z,23.40
2018-09-14T12:40:03.262Z,23.30
2018-09-14T12:42:32.441Z,23.40
2018-09-14T12:45:01.523Z,23.50
2018-09-14T12:47:30.748Z,23.40
2018-09-14T12:49:59.914Z,23.30
2018-09-14T12:52:29.254Z,23.30
2018-09-14T12:54:58.450Z,23.10
2018-09-14T12:57:27.576Z,22.80
2018-09-14T12:59:56.659Z,22.50
2018-09-14T13:02:25.793Z,22.40
2018-09-14T13:04:54.940Z,22.30
2018-09-14T13:07:24.111Z,22.30
2018-09-14T13:09:53.232Z,22.50
2018-09-14T13:12:22.391Z,22.60
2018-09-14T13:14:51.698Z,22.70
2018-09-14T13:17:20.735Z,22.80
2018-09-14T13:19:49.917Z,23.10
2018-09-14T13:22:19.132Z,23.50
2018-09-14T13:24:49.713Z,23.70
2018-09-14T13:27:18.857Z,23.60
2018-09-14T13:29:48.159Z,23.40
2018-09-14T13:32:17.488Z,23.00
2018-09-14T13:34:46.677Z,22.70
2018-09-14T13:37:15.757Z,22.30
2018-09-14T13:39:45.142Z,22.20
2018-09-14T13:42:14.268Z,22.10
2018-09-14T13:44:43.413Z,22.10
2018-09-14T13:47:12.532Z,22.20
2018-09-14T13:49:41.737Z,22.10
2018-09-14T13:52:10.859Z,22.10
2018-09-14T13:54:39.975Z,22.00
2018-09-14T13:57:09.084Z,22.10
2018-09-14T13:59:38.291Z,22.10
2018-09-14T14:02:07.420Z,22.10
2018-09-14T14:04:36.549Z,22.00
2018-09-14T14:07:06.002Z,22.00
2018-09-14T14:09:35.178Z,21.80
2018-09-14T14:12:04.298Z,21.70
2018-09-14T14:14:33.434Z,21.70
2018-09-14T14:17:02.648Z,21.70
2018-09-14T14:19:31.685Z,21.90
2018-09-14T14:22:00.845Z,22.10
2018-09-14T14:24:29.961Z,22.10
2018-09-14T14:26:59.098Z,22.30
2018-09-14T14:29:28.282Z,22.60
2018-09-14T14:31:57.368Z,22.80
2018-09-14T14:34:26.484Z,22.90
2018-09-14T14:36:55.679Z,22.90
2018-09-14T14:39:24.751Z,23.00
2018-09-14T14:41:53.897Z,22.80
2018-09-14T14:44:23.070Z,22.60
2018-09-14T14:46:52.168Z,22.40
2018-09-14T14:49:21.481Z,22.10
2018-09-14T14:51:50.516Z,22.00
2018-09-14T14:54:19.666Z,22.00
2018-09-14T14:56:48.755Z,22.10
2018-09-14T14:59:18.123Z,22.00
2018-09-14T15:01:47.210Z,21.90
2018-09-14T15:04:16.462Z,22.00
2018-09-14T15:06:45.593Z,22.20
2018-09-14T15:09:14.730Z,22.20
2018-09-14T15:11:43.863Z,22.20
2018-09-14T15:14:13.014Z,22.10
2018-09-14T15:16:42.106Z,21.90
2018-09-14T15:19:11.364Z,21.80
2018-09-14T15:21:40.405Z,21.90
2018-09-14T15:24:09.579Z,21.90
2018-09-14T15:26:38.682Z,22.00
2018-09-14T15:29:08.091Z,22.00
2018-09-14T15:31:37.311Z,21.90
2018-09-14T15:34:06.419Z,21.60
2018-09-14T15:36:35.509Z,21.50
2018-09-14T15:39:08.533Z,21.50
2018-09-14T15:41:37.734Z,21.70
2018-09-14T15:44:06.944Z,21.80
2018-09-14T15:46:36.077Z,21.80
2018-09-14T15:49:06.170Z,21.90
2018-09-14T15:51:35.255Z,21.80
2018-09-14T15:54:04.438Z,21.70
2018-09-14T15:56:33.571Z,21.60
2018-09-14T15:59:02.779Z,21.40
2018-09-14T16:01:31.899Z,21.30
2018-09-14T16:04:01.076Z,21.20
2018-09-14T16:06:30.227Z,21.10
2018-09-14T16:08:59.353Z,21.00
2018-09-14T16:11:28.474Z,20.80
2018-09-14T16:13:57.605Z,20.70
2018-09-14T16:16:26.783Z,20.60
2018-09-14T16:18:56.037Z,20.60
2018-09-14T16:21:25.161Z,20.50
2018-09-14T16:23:54.403Z,20.40
2018-09-14T16:26:23.703Z,20.50
2018-09-14T16:28:52.760Z,20.50
2018-09-14T16:31:21.923Z,20.50
2018-09-14T16:33:51.110Z,20.50
2018-09-14T16:36:20.199Z,20.30
2018-09-14T16:38:49.303Z,20.30
2018-09-14T16:41:19.045Z,20.30
2018-09-14T16:43:48.132Z,20.20
2018-09-14T16:46:17.238Z,20.20
2018-09-14T16:48:46.357Z,20.20
2018-09-14T16:51:15.517Z,20.20
2018-09-14T16:53:44.615Z,20.10
2018-09-14T16:56:13.681Z,20.10
2018-09-14T16:58:42.920Z,20.10
2018-09-14T17:01:12.029Z,20.10
2018-09-14T17:03:41.114Z,20.10
2018-09-14T17:06:10.406Z,20.10
2018-09-14T17:08:39.518Z,20.20
2018-09-14T17:11:08.622Z,20.20
2018-09-14T17:13:37.831Z,20.30
2018-09-14T17:16:07.017Z,20.30
2018-09-14T17:18:36.163Z,20.30
2018-09-14T17:21:05.297Z,20.30
2018-09-14T17:23:34.675Z,20.30
2018-09-14T17:26:03.845Z,20.20
2018-09-14T17:28:32.946Z,20.10
2018-09-14T17:31:02.134Z,20.00
2018-09-14T17:33:31.240Z,20.00
2018-09-14T17:36:00.424Z,20.00
2018-09-14T17:38:29.552Z,19.90
2018-09-14T17:40:58.693Z,19.90
2018-09-14T17:43:27.826Z,19.80
2018-09-14T17:45:56.986Z,19.80
2018-09-14T17:48:26.198Z,19.80
2018-09-14T17:50:55.366Z,19.80
2018-09-14T17:53:24.506Z,19.70
2018-09-14T17:55:53.678Z,19.70
2018-09-14T17:58:22.879Z,19.60
2018-09-14T18:00:52.118Z,19.50
2018-09-14T18:03:21.240Z,19.50
2018-09-14T18:05:50.392Z,19.50
2018-09-14T18:08:19.973Z,19.50
2018-09-14T18:10:50.157Z,19.40
2018-09-14T18:13:19.305Z,19.40
2018-09-14T18:15:48.456Z,19.30
2018-09-14T18:18:17.619Z,19.30
2018-09-14T18:20:46.777Z,19.20
2018-09-14T18:23:15.969Z,19.10
2018-09-14T18:25:45.121Z,19.10
2018-09-14T18:28:14.274Z,19.00
2018-09-14T18:30:43.640Z,18.90
2018-09-14T18:33:12.800Z,18.90
2018-09-14T18:35:42.067Z,18.90
2018-09-14T18:38:11.206Z,18.80
2018-09-14T18:40:41.211Z,18.70
2018-09-14T18:43:10.526Z,18.70
2018-09-14T18:45:39.712Z,18.60
2018-09-14T18:48:08.881Z,18.60
2018-09-14T18:50:38.094Z,18.50
2018-09-14T18:53:07.357Z,18.50
2018-09-14T18:55:36.536Z,18.50
2018-09-14T18:58:05.731Z,18.50
2018-09-14T19:00:34.903Z,18.60
2018-09-14T19:03:04.044Z,18.50
2018-09-14T19:05:33.307Z,18.50
2018-09-14T19:08:02.376Z,18.50
2018-09-14T19:10:31.831Z,18.40
2018-09-14T19:13:00.998Z,18.30
2018-09-14T19:15:30.166Z,18.20
2018-09-14T19:17:59.319Z,18.30
2018-09-14T19:20:28.563Z,18.20
2018-09-14T19:22:57.773Z,18.20
2018-09-14T19:25:27.011Z,18.30
2018-09-14T19:27:56.215Z,18.20
2018-09-14T19:30:25.417Z,18.20
2018-09-14T19:32:54.732Z,18.10
2018-09-14T19:35:23.979Z,18.10
2018-09-14T19:37:53.130Z,18.10
2018-09-14T19:40:22.281Z,18.20
2018-09-14T19:42:51.433Z,18.10
2018-09-14T19:45:20.609Z,18.20
2018-09-14T19:47:49.914Z,18.20
2018-09-14T19:50:19.198Z,18.20
2018-09-14T19:52:48.284Z,18.20
2018-09-14T19:55:17.492Z,18.10
2018-09-14T19:57:46.621Z,18.10
2018-09-14T20:00:15.946Z,18.10
2018-09-14T20:02:45.185Z,18.10
2018-09-14T20:05:14.339Z,18.00
2018-09-14T20:07:43.517Z,18.10
2018-09-14T20:10:12.675Z,18.10
2018-09-14T20:12:41.806Z,18.00
2018-09-14T20:15:10.976Z,18.00
2018-09-14T20:17:40.221Z,18.00
2018-09-14T20:20:09.423Z,18.00
2018-09-14T20:22:38.609Z,17.90
2018-09-14T20:25:07.810Z,18.00
2018-09-14T20:27:37.013Z,17.90
2018-09-14T20:30:07.260Z,18.00
2018-09-14T20:32:36.414Z,17.90
2018-09-14T20:35:05.705Z,17.90
2018-09-14T20:37:34.807Z,17.90
2018-09-14T20:40:04.029Z,17.80
2018-09-14T20:42:33.653Z,17.80
2018-09-14T20:45:02.818Z,17.80
2018-09-14T20:47:32.386Z,17.80
2018-09-14T20:50:01.521Z,17.80
2018-09-14T20:52:30.731Z,17.70
2018-09-14T20:54:59.970Z,17.70
2018-09-14T20:57:29.148Z,17.70
2018-09-14T20:59:58.269Z,17.60
2018-09-14T21:02:27.431Z,17.60
2018-09-14T21:04:56.570Z,17.60
2018-09-14T21:07:25.798Z,17.60
2018-09-14T21:09:54.972Z,17.60
2018-09-14T21:12:24.093Z,17.60
2018-09-14T21:14:53.263Z,17.60
2018-09-14T21:17:22.411Z,17.60
2018-09-14T21:19:51.546Z,17.60
2018-09-14T21:22:20.629Z,17.60
2018-09-14T21:24:49.794Z,17.60
2018-09-14T21:27:19.118Z,17.60
2018-09-14T21:29:48.309Z,17.70
2018-09-14T21:32:17.436Z,17.70
2018-09-14T21:34:49.505Z,17.70
2018-09-14T21:37:18.613Z,17.60
2018-09-14T21:39:47.839Z,17.50
2018-09-14T21:42:20.278Z,17.60
2018-09-14T21:44:49.418Z,17.60
2018-09-14T21:47:18.548Z,17.60
2018-09-14T21:49:47.798Z,17.60
2018-09-14T21:52:16.969Z,17.60
2018-09-14T21:54:46.159Z,17.60
2018-09-14T21:57:15.360Z,17.50
2018-09-14T21:59:44.666Z,17.50
2018-09-14T22:02:13.878Z,17.50
2018-09-14T22:04:43.006Z,17.50
2018-09-14T22:07:12.103Z,17.60
2018-09-14T22:09:41.235Z,17.50
2018-09-14T22:12:10.364Z,17.50
2018-09-14T22:14:39.462Z,17.40
2018-09-14T22:17:08.615Z,17.40
2018-09-14T22:19:37.717Z,17.40
2018-09-14T22:22:06.884Z,17.50
2018-09-14T22:24:35.946Z,17.50
2018-09-14T22:27:05.099Z,17.50
2018-09-14T22:29:34.589Z,17.50
2018-09-14T22:32:03.701Z,17.60
2018-09-14T22:34:32.802Z,17.60
2018-09-14T22:37:01.897Z,17.50
2018-09-14T22:39:31.091Z,17.50
2018-09-14T22:42:00.376Z,17.60
2018-09-14T22:44:29.478Z,17.60
2018-09-14T22:46:58.596Z,17.50
2018-09-14T22:49:27.718Z,17.50
2018-09-14T22:51:56.874Z,17.60
2018-09-14T22:54:26.050Z,17.50
2018-09-14T22:56:55.159Z,17.50
2018-09-14T22:59:24.375Z,17.40
2018-09-14T23:01:53.759Z,17.40
2018-09-14T23:04:22.822Z,17.30
2018-09-14T23:06:51.963Z,17.20
2018-09-14T23:09:21.170Z,17.20
2018-09-14T23:11:50.206Z,17.10
2018-09-14T23:14:19.346Z,17.10
2018-09-14T23:16:48.399Z,17.00
2018-09-14T23:19:17.538Z,17.00
2018-09-14T23:21:46.683Z,17.00
2018-09-14T23:24:15.787Z,17.00
2018-09-14T23:26:44.946Z,17.00
2018-09-14T23:29:14.053Z,16.80
2018-09-14T23:31:43.131Z,16.80
2018-09-14T23:34:12.267Z,16.80
2018-09-14T23:36:41.404Z,16.80
2018-09-14T23:39:11.652Z,16.80
2018-09-14T23:41:40.770Z,16.70
2018-09-14T23:44:09.875Z,16.70
2018-09-14T23:46:38.925Z,16.70
2018-09-14T23:49:08.062Z,16.60
2018-09-14T23:51:37.140Z,16.60
2018-09-14T23:54:06.296Z,16.50
2018-09-14T23:56:35.384Z,16.50
2018-09-14T23:59:04.488Z,16.50
